Startpagina
METAR-TAF:

METAR-TAF

Vliegvelden :

Kinshasa, Congo

Luchthaven N'djili

breedte: 04-23S, lengte: 015-26E, hoogte: 309 m

Actueel weer

Dit bericht is 23 minuten geleden gemaakt, om 00:00 UTC
Weinig wind
Temperatuur 23°C
Vochtigheid 83%
Druk 1015 hPa
Zicht: 6000 m
Verspreide wolken op 1400 ft

METAR: FZAA 280000Z 00000KT 6000 SCT014 23/20 Q1015 NOSIG

Tijdstip: 01:23 (00:23 UTC)

Verwachting

Dit bericht is 1 uur en het 23 minuten geleden gemaakt, om 23:00 UTC
Verwachting geldig van 28 om 00 UTC tot 29 om 06 UTC
Wind 4 kt uit het westzuidwesten
Zicht: 6000 m
Weinig wolken op 1600 ft
Tijdelijke
van 28 om 05 UTC tot 28 om 09 UTC
Zicht: 4000 m
Geheel bewolkt op 1400 ft
nevel
Wijzigt naar
van 28 om 11 UTC tot 28 om 13 UTC
Zicht: 6000 m
Gebroken wolken op 2200 ft
Wijzigt naar
van 29 om 04 UTC tot 29 om 06 UTC
Zicht: 4000 m
Geheel bewolkt op 1400 ft
nevel

TAF: FZAA 272300Z 2800/2906 24004KT 6000 FEW016 TEMPO 2805/2809 4000 BR OVC014 BECMG 2811/2813 6000 BKN022 BECMG 2904/2906 4000 BR OVC014

Waarnemingen en weersverwachtingen van meer dan 4000 vliegvelden (METAR en TAF).

De beschikbare stations zijn de gele en rode punten op de kaart.

Ga met uw muis naar het station om de naam te zien.

Klik dan om waarnemingen en weersverwachtingen te zien.

kaart wijzigen: klik op de groene knoppen met een zwart kruis om in te zoomen, op de groene knop met een streepje om uit te zoomen of op de groene pijlen voor aangrenzende kaarten.


METAR-TAF: